Mytishchi, Russia
Current Conditions -  °F | °C
As of 12:30 PM on Wednesday 22 Oct 2014 (Local Time) from UUEE Reporting Station
Light Snow Light Snow  
Wind Chill:   Ceiling: 2000
Heat Index: 21°   Visibility: 6mi
Dew Point: 14°   Wind: 13mph
Humidity: 74%   Direction: 310°NW
Pressure: 29.91"   Gusts: NA
Location:  55.91°N, 37.73°E
Report Text: UUEE 220930Z 31006MPS 9999 -SN BKN020 M06/M10 Q1013 7541015125410145 NOSIG
Loading
Personal Weather Stations






























Interactive Weather Map
Tropical Storm Tracking
New forecast layout! Learn more

10-Day Weather Forecast

Advertisements
Track Severe Weather on mobile